Time,TemperatureF,DewpointF,PressureIn,WindDirection,WindDirectionDegrees,WindSpeedMPH,WindSpeedGustMPH,Humidity,HourlyPrecipIn,Conditions,Clouds,dailyrainin,SoftwareType,DateUTC
2013-07-07 00:01:00,86.0,66.0,29.82,East,86,2.0,3.0,51,0.00,,,0.01,,2013-07-07 05:01:00,
2013-07-07 00:11:00,86.0,66.0,29.82,East,86,2.0,3.0,51,0.00,,,0.01,,2013-07-07 05:11:00,
2013-07-07 01:01:00,79.0,65.0,29.88,East,86,4.0,7.0,62,0.00,,,0.01,,2013-07-07 06:01:00,
2013-07-07 01:11:00,79.0,65.0,29.88,East,86,4.0,7.0,62,0.00,,,0.01,,2013-07-07 06:11:00,
2013-07-07 01:21:00,78.0,65.0,29.88,East,84,2.0,6.0,64,0.00,,,0.01,,2013-07-07 06:21:00,
2013-07-07 01:32:00,78.0,65.0,29.88,East,84,2.0,6.0,64,0.00,,,0.01,,2013-07-07 06:32:00,
2013-07-07 01:43:00,78.0,65.0,29.88,East,84,2.0,6.0,64,0.00,,,0.01,,2013-07-07 06:43:00,
2013-07-07 01:52:00,78.0,65.0,29.88,East,84,2.0,6.0,64,0.00,,,0.01,,2013-07-07 06:52:00,
2013-07-07 02:02:00,77.0,65.0,29.88,East,86,2.0,6.0,67,0.00,,,0.00,,2013-07-07 07:02:00,
2013-07-07 02:11:00,77.0,65.0,29.88,East,88,3.0,5.0,67,0.00,,,0.00,,2013-07-07 07:11:00,
2013-07-07 02:22:00,77.0,65.0,29.88,East,88,3.0,5.0,67,0.00,,,0.00,,2013-07-07 07:22:00,
2013-07-07 02:33:00,76.0,65.0,29.88,East,86,2.0,6.0,68,0.00,,,0.00,,2013-07-07 07:33:00,
2013-07-07 02:44:00,76.0,65.0,29.88,East,93,2.0,6.0,70,0.00,,,0.00,,2013-07-07 07:44:00,
2013-07-07 02:53:00,76.0,65.0,29.88,East,82,3.0,5.0,69,0.00,,,0.00,,2013-07-07 07:53:00,
2013-07-07 03:02:00,76.0,65.0,29.88,East,82,3.0,5.0,69,0.00,,,0.00,,2013-07-07 08:02:00,
2013-07-07 03:12:00,76.0,66.0,29.88,East,87,0.0,2.0,71,0.00,,,0.00,,2013-07-07 08:12:00,
2013-07-07 03:22:00,75.0,65.0,29.88,East,85,0.0,0.0,71,0.00,,,0.00,,2013-07-07 08:22:00,
2013-07-07 03:34:00,75.0,66.0,29.88,East,87,0.0,0.0,73,0.00,,,0.00,,2013-07-07 08:34:00,
2013-07-07 03:44:00,75.0,66.0,29.88,East,90,1.0,3.0,73,0.00,,,0.00,,2013-07-07 08:44:00,
2013-07-07 03:53:00,75.0,66.0,29.88,East,90,1.0,3.0,73,0.00,,,0.00,,2013-07-07 08:53:00,
2013-07-07 04:02:00,75.0,66.0,29.88,East,90,1.0,3.0,73,0.00,,,0.00,,2013-07-07 09:02:00,
2013-07-07 04:12:00,75.0,66.0,29.88,East,90,1.0,3.0,73,0.00,,,0.00,,2013-07-07 09:12:00,
2013-07-07 04:22:00,75.0,66.0,29.88,ESE,105,3.0,6.0,73,0.00,,,0.00,,2013-07-07 09:22:00,
2013-07-07 04:34:00,75.0,66.0,29.89,SE,127,3.0,6.0,73,0.00,,,0.00,,2013-07-07 09:34:00,
2013-07-07 04:43:00,75.0,66.0,29.89,ESE,110,3.0,6.0,74,0.00,,,0.00,,2013-07-07 09:43:00,
2013-07-07 04:53:00,75.0,66.0,29.89,ESE,110,3.0,6.0,74,0.00,,,0.00,,2013-07-07 09:53:00,
2013-07-07 05:03:00,75.0,67.0,29.89,ESE,111,2.0,6.0,75,0.00,,,0.00,,2013-07-07 10:03:00,
2013-07-07 05:12:00,75.0,67.0,29.89,ESE,111,3.0,6.0,75,0.00,,,0.00,,2013-07-07 10:12:00,
2013-07-07 05:22:00,75.0,67.0,29.89,ESE,111,3.0,6.0,75,0.00,,,0.00,,2013-07-07 10:22:00,
2013-07-07 05:32:00,75.0,67.0,29.89,ESE,111,3.0,6.0,75,0.00,,,0.00,,2013-07-07 10:32:00,
2013-07-07 05:43:00,74.0,66.0,29.89,SE,129,3.0,7.0,76,0.00,,,0.00,,2013-07-07 10:43:00,
2013-07-07 05:52:00,74.0,66.0,29.89,SE,129,3.0,7.0,76,0.00,,,0.00,,2013-07-07 10:52:00,
2013-07-07 06:02:00,74.0,66.0,29.89,SE,129,3.0,7.0,76,0.00,,,0.00,,2013-07-07 11:02:00,
2013-07-07 06:11:00,74.0,66.0,29.89,SE,134,2.0,6.0,77,0.00,,,0.00,,2013-07-07 11:11:00,
2013-07-07 06:23:00,74.0,67.0,29.90,SE,137,3.0,6.0,78,0.00,,,0.00,,2013-07-07 11:23:00,
2013-07-07 06:34:00,74.0,67.0,29.90,SE,137,3.0,6.0,78,0.00,,,0.00,,2013-07-07 11:34:00,
2013-07-07 06:43:00,74.0,67.0,29.90,SE,137,3.0,6.0,78,0.00,,,0.00,,2013-07-07 11:43:00,
2013-07-07 06:53:00,73.0,66.0,29.90,ESE,113,3.0,5.0,79,0.00,,,0.00,,2013-07-07 11:53:00,
2013-07-07 07:02:00,73.0,66.0,29.91,ESE,118,2.0,3.0,79,0.00,,,0.00,,2013-07-07 12:02:00,
2013-07-07 07:12:00,73.0,66.0,29.91,ESE,103,2.0,3.0,80,0.00,,,0.00,,2013-07-07 12:12:00,
2013-07-07 07:22:00,73.0,66.0,29.91,ESE,103,2.0,3.0,80,0.00,,,0.00,,2013-07-07 12:22:00,
2013-07-07 07:34:00,74.0,67.0,29.92,ESE,117,2.0,3.0,79,0.00,,,0.00,,2013-07-07 12:34:00,
2013-07-07 07:43:00,74.0,67.0,29.92,SE,126,3.0,5.0,79,0.00,,,0.00,,2013-07-07 12:43:00,
2013-07-07 07:52:00,74.0,67.0,29.92,SE,126,3.0,5.0,79,0.00,,,0.00,,2013-07-07 12:52:00,
2013-07-07 08:02:00,76.0,69.0,29.93,SE,127,3.0,7.0,79,0.00,,,0.00,,2013-07-07 13:02:00,
2013-07-07 08:11:00,77.0,70.0,29.93,SE,144,4.0,8.0,79,0.00,,,0.00,,2013-07-07 13:11:00,
2013-07-07 08:22:00,77.0,70.0,29.93,SE,138,6.0,8.0,78,0.00,,,0.00,,2013-07-07 13:22:00,
2013-07-07 08:34:00,78.0,71.0,29.93,SE,142,6.0,10.0,78,0.00,,,0.00,,2013-07-07 13:34:00,
2013-07-07 08:43:00,78.0,71.0,29.93,SE,142,6.0,10.0,78,0.00,,,0.00,,2013-07-07 13:43:00,
2013-07-07 08:52:00,80.0,72.0,29.93,SE,134,5.0,9.0,77,0.00,,,0.00,,2013-07-07 13:52:00,
2013-07-07 09:02:00,80.0,72.0,29.93,SE,134,5.0,9.0,77,0.00,,,0.00,,2013-07-07 14:02:00,
2013-07-07 09:12:00,82.0,73.0,29.93,SSE,155,3.0,6.0,75,0.00,,,0.00,,2013-07-07 14:12:00,
2013-07-07 09:22:00,82.0,73.0,29.94,SSE,147,6.0,8.0,74,0.00,,,0.00,,2013-07-07 14:22:00,
2013-07-07 09:34:00,82.0,73.0,29.94,SSE,147,6.0,8.0,74,0.00,,,0.00,,2013-07-07 14:34:00,
2013-07-07 09:43:00,82.0,73.0,29.94,SSE,155,3.0,7.0,75,0.00,,,0.00,,2013-07-07 14:43:00,
2013-07-07 09:53:00,82.0,73.0,29.94,SSE,155,3.0,7.0,75,0.00,,,0.00,,2013-07-07 14:53:00,
2013-07-07 10:02:00,83.0,74.0,29.94,SE,131,6.0,10.0,74,0.00,,,0.00,,2013-07-07 15:02:00,
2013-07-07 10:11:00,84.0,73.0,29.94,SE,130,5.0,9.0,70,0.00,,,0.00,,2013-07-07 15:11:00,
2013-07-07 10:22:00,84.0,73.0,29.94,SE,146,3.0,8.0,70,0.00,,,0.00,,2013-07-07 15:22:00,
2013-07-07 10:34:00,85.0,74.0,29.94,SSE,150,5.0,8.0,70,0.00,,,0.00,,2013-07-07 15:34:00,
2013-07-07 10:43:00,85.0,73.0,29.94,SE,145,5.0,9.0,67,0.00,,,0.00,,2013-07-07 15:43:00,
2013-07-07 10:52:00,86.0,74.0,29.94,SE,145,3.0,9.0,67,0.00,,,0.00,,2013-07-07 15:52:00,
2013-07-07 11:01:00,86.0,74.0,29.94,SE,145,3.0,9.0,67,0.00,,,0.00,,2013-07-07 16:01:00,
2013-07-07 11:11:00,87.0,74.0,29.94,ESE,117,5.0,12.0,66,0.00,,,0.00,,2013-07-07 16:11:00,
2013-07-07 11:22:00,87.0,72.0,29.94,ESE,115,8.0,12.0,62,0.00,,,0.00,,2013-07-07 16:22:00,
2013-07-07 11:43:00,87.0,72.0,29.94,ESE,115,8.0,12.0,62,0.00,,,0.00,,2013-07-07 16:43:00,
2013-07-07 11:53:00,87.0,72.0,29.94,ESE,115,8.0,12.0,62,0.00,,,0.00,,2013-07-07 16:53:00,
2013-07-07 12:02:00,87.0,72.0,29.94,ESE,115,8.0,12.0,62,0.00,,,0.00,,2013-07-07 17:02:00,
2013-07-07 12:12:00,88.0,71.0,29.93,SE,140,6.0,10.0,58,0.00,,,0.00,,2013-07-07 17:12:00,
2013-07-07 12:22:00,88.0,71.0,29.93,SE,140,6.0,10.0,58,0.00,,,0.00,,2013-07-07 17:22:00,
2013-07-07 12:34:00,88.0,71.0,29.93,SE,145,1.0,9.0,57,0.00,,,0.00,,2013-07-07 17:34:00,
2013-07-07 12:43:00,89.0,70.0,29.93,ENE,62,9.0,14.0,54,0.00,,,0.00,,2013-07-07 17:43:00,
2013-07-07 12:53:00,89.0,70.0,29.93,ENE,62,9.0,14.0,54,0.00,,,0.00,,2013-07-07 17:53:00,
2013-07-07 13:02:00,90.0,71.0,29.93,ESE,120,4.0,12.0,53,0.00,,,0.00,,2013-07-07 18:02:00,
2013-07-07 13:11:00,91.0,71.0,29.92,SE,134,6.0,13.0,53,0.00,,,0.00,,2013-07-07 18:11:00,
2013-07-07 13:22:00,92.0,69.0,29.92,South,169,6.0,13.0,48,0.00,,,0.00,,2013-07-07 18:22:00,
2013-07-07 13:33:00,92.0,69.0,29.91,SE,144,7.0,12.0,47,0.00,,,0.00,,2013-07-07 18:33:00,
2013-07-07 13:43:00,91.0,69.0,29.91,ESE,122,5.0,10.0,48,0.00,,,0.00,,2013-07-07 18:43:00,
2013-07-07 13:53:00,91.0,69.0,29.91,ESE,122,5.0,10.0,48,0.00,,,0.00,,2013-07-07 18:53:00,
2013-07-07 14:01:00,91.0,69.0,29.91,ESE,122,5.0,10.0,48,0.00,,,0.00,,2013-07-07 19:01:00,
2013-07-07 14:11:00,93.0,70.0,29.91,SSE,149,7.0,14.0,47,0.00,,,0.00,,2013-07-07 19:11:00,
2013-07-07 14:22:00,92.0,69.0,29.91,ESE,119,6.0,15.0,48,0.00,,,0.00,,2013-07-07 19:22:00,
2013-07-07 14:34:00,92.0,69.0,29.91,ESE,119,6.0,15.0,48,0.00,,,0.00,,2013-07-07 19:34:00,
2013-07-07 14:43:00,92.0,69.0,29.90,ESE,114,5.0,14.0,47,0.00,,,0.00,,2013-07-07 19:43:00,
2013-07-07 14:54:00,91.0,68.0,29.90,SE,130,6.0,13.0,47,0.00,,,0.00,,2013-07-07 19:54:00,
2013-07-07 15:02:00,91.0,68.0,29.90,SE,130,6.0,13.0,47,0.00,,,0.00,,2013-07-07 20:02:00,
2013-07-07 15:11:00,91.0,68.0,29.90,SE,130,6.0,13.0,47,0.00,,,0.00,,2013-07-07 20:11:00,
2013-07-07 15:22:00,92.0,68.0,29.89,East,85,8.0,16.0,45,0.00,,,0.00,,2013-07-07 20:22:00,
2013-07-07 15:34:00,93.0,68.0,29.89,ESE,119,7.0,16.0,44,0.00,,,0.00,,2013-07-07 20:34:00,
2013-07-07 15:42:00,93.0,68.0,29.89,ESE,119,7.0,16.0,44,0.00,,,0.00,,2013-07-07 20:42:00,
2013-07-07 15:53:00,94.0,69.0,29.88,SE,128,7.0,14.0,44,0.00,,,0.00,,2013-07-07 20:53:00,
2013-07-07 16:02:00,94.0,69.0,29.88,SE,128,7.0,14.0,44,0.00,,,0.00,,2013-07-07 21:02:00,
2013-07-07 16:11:00,94.0,66.0,29.88,ESE,123,7.0,12.0,40,0.00,,,0.00,,2013-07-07 21:11:00,
2013-07-07 16:22:00,94.0,66.0,29.88,ESE,123,7.0,12.0,40,0.00,,,0.00,,2013-07-07 21:22:00,
2013-07-07 16:33:00,95.0,66.0,29.88,SE,145,7.0,13.0,39,0.00,,,0.00,,2013-07-07 21:33:00,
2013-07-07 16:43:00,95.0,66.0,29.88,SE,145,7.0,13.0,39,0.00,,,0.00,,2013-07-07 21:43:00,
2013-07-07 16:53:00,94.0,66.0,29.87,SE,142,6.0,10.0,40,0.00,,,0.00,,2013-07-07 21:53:00,
2013-07-07 17:01:00,94.0,66.0,29.87,SE,142,6.0,10.0,40,0.00,,,0.00,,2013-07-07 22:01:00,
2013-07-07 17:11:00,95.0,67.0,29.86,East,92,1.0,10.0,40,0.00,,,0.00,,2013-07-07 22:11:00,
2013-07-07 17:22:00,95.0,67.0,29.86,East,92,1.0,10.0,40,0.00,,,0.00,,2013-07-07 22:22:00,
2013-07-07 17:34:00,95.0,67.0,29.86,East,92,1.0,10.0,40,0.00,,,0.00,,2013-07-07 22:34:00,
2013-07-07 17:43:00,95.0,67.0,29.86,East,92,1.0,10.0,40,0.00,,,0.00,,2013-07-07 22:43:00,
2013-07-07 17:53:00,95.0,67.0,29.86,East,92,1.0,10.0,40,0.00,,,0.00,,2013-07-07 22:53:00,
2013-07-07 18:02:00,93.0,66.0,29.86,ESE,117,5.0,10.0,41,0.00,,,0.00,,2013-07-07 23:02:00,
2013-07-07 18:12:00,93.0,66.0,29.86,ESE,118,5.0,9.0,42,0.00,,,0.00,,2013-07-07 23:12:00,
2013-07-07 18:22:00,94.0,67.0,29.85,ESE,123,4.0,7.0,41,0.00,,,0.00,,2013-07-07 23:22:00,
2013-07-07 18:33:00,94.0,65.0,29.85,SE,135,2.0,3.0,39,0.00,,,0.00,,2013-07-07 23:33:00,
2013-07-07 18:43:00,94.0,66.0,29.85,ENE,74,0.0,8.0,40,0.00,,,0.00,,2013-07-07 23:43:00,
2013-07-07 18:52:00,94.0,66.0,29.85,SE,136,5.0,9.0,40,0.00,,,0.00,,2013-07-07 23:52:00,
2013-07-07 19:01:00,93.0,67.0,29.85,SE,127,7.0,10.0,43,0.00,,,0.00,,2013-07-08 00:01:00,
2013-07-07 19:11:00,93.0,67.0,29.85,SE,127,7.0,10.0,43,0.00,,,0.00,,2013-07-08 00:11:00,
2013-07-07 19:22:00,93.0,67.0,29.85,SE,127,7.0,10.0,43,0.00,,,0.00,,2013-07-08 00:22:00,
2013-07-07 19:33:00,93.0,67.0,29.85,SE,127,7.0,10.0,43,0.00,,,0.00,,2013-07-08 00:33:00,
2013-07-07 19:43:00,93.0,67.0,29.85,SE,127,7.0,10.0,43,0.00,,,0.00,,2013-07-08 00:43:00,
2013-07-07 19:53:00,92.0,68.0,29.86,ESE,104,8.0,10.0,46,0.00,,,0.00,,2013-07-08 00:53:00,
2013-07-07 20:01:00,92.0,69.0,29.86,East,100,4.0,10.0,48,0.00,,,0.00,,2013-07-08 01:01:00,
2013-07-07 20:11:00,92.0,69.0,29.86,East,100,4.0,10.0,48,0.00,,,0.00,,2013-07-08 01:11:00,
2013-07-07 20:22:00,91.0,69.0,29.86,East,90,5.0,8.0,49,0.00,,,0.00,,2013-07-08 01:22:00,
2013-07-07 20:32:00,90.0,69.0,29.86,East,82,0.0,6.0,51,0.00,,,0.00,,2013-07-08 01:32:00,
2013-07-07 20:43:00,89.0,68.0,29.86,East,82,0.0,0.0,51,0.00,,,0.00,,2013-07-08 01:43:00,
2013-07-07 20:53:00,89.0,68.0,29.86,East,82,0.0,0.0,51,0.00,,,0.00,,2013-07-08 01:53:00,
2013-07-07 21:02:00,89.0,68.0,29.86,East,82,0.0,0.0,51,0.00,,,0.00,,2013-07-08 02:02:00,
2013-07-07 21:11:00,89.0,68.0,29.86,East,82,0.0,0.0,51,0.00,,,0.00,,2013-07-08 02:11:00,
2013-07-07 21:22:00,86.0,69.0,29.87,East,85,0.0,0.0,58,0.00,,,0.00,,2013-07-08 02:22:00,
2013-07-07 21:33:00,86.0,69.0,29.87,East,85,0.0,0.0,58,0.00,,,0.00,,2013-07-08 02:33:00,
2013-07-07 21:43:00,86.0,69.0,29.87,East,85,0.0,0.0,58,0.00,,,0.00,,2013-07-08 02:43:00,
2013-07-07 21:52:00,86.0,69.0,29.87,East,85,0.0,0.0,58,0.00,,,0.00,,2013-07-08 02:52:00,
2013-07-07 22:01:00,86.0,69.0,29.87,East,85,0.0,0.0,58,0.00,,,0.00,,2013-07-08 03:01:00,
2013-07-07 22:12:00,86.0,71.0,29.89,SE,137,7.0,9.0,62,0.00,,,0.00,,2013-07-08 03:12:00,
2013-07-07 22:23:00,86.0,71.0,29.89,SE,137,7.0,9.0,62,0.00,,,0.00,,2013-07-08 03:23:00,
2013-07-07 22:34:00,86.0,72.0,29.90,SE,140,6.0,12.0,64,0.00,,,0.00,,2013-07-08 03:34:00,
2013-07-07 22:42:00,86.0,73.0,29.91,SE,142,5.0,10.0,65,0.00,,,0.00,,2013-07-08 03:42:00,
2013-07-07 22:52:00,85.0,73.0,29.91,SE,138,5.0,9.0,67,0.00,,,0.00,,2013-07-08 03:52:00,
2013-07-07 23:02:00,85.0,73.0,29.91,ESE,120,5.0,7.0,67,0.00,,,0.00,,2013-07-08 04:02:00,
2013-07-07 23:11:00,85.0,73.0,29.91,ESE,120,5.0,7.0,67,0.00,,,0.00,,2013-07-08 04:11:00,
2013-07-07 23:22:00,85.0,73.0,29.91,ESE,120,5.0,7.0,67,0.00,,,0.00,,2013-07-08 04:22:00,
2013-07-07 23:33:00,84.0,73.0,29.91,SE,142,5.0,8.0,70,0.00,,,0.00,,2013-07-08 04:33:00,
2013-07-07 23:42:00,84.0,73.0,29.92,SE,131,3.0,8.0,70,0.00,,,0.00,,2013-07-08 04:42:00,
2013-07-07 23:53:00,84.0,73.0,29.92,SE,131,3.0,8.0,70,0.00,,,0.00,,2013-07-08 04:53:00,